Time;durP1;ratioP1;P1;durP2;ratioP2;P2;SDS_P1;SDS_P2;PMS_P1;PMS_P2;Temp;Humidity;BMP_temperature;BMP_pressure;BME280_temperature;BME280_humidity;BME280_pressure;Samples;Min_cycle;Max_cycle;Signal;HPM_P1;HPM_P2
2022/12/04 00:00:06;;;;;;;39.77;24.27;;;2.60;96.80;;;;;;4985510;28;20211;-84
2022/12/04 00:02:34;;;;;;;42.90;24.27;;;2.50;97.60;;;;;;4973510;28;20170;-84
2022/12/04 00:04:59;;;;;;;41.10;23.63;;;2.40;98.60;;;;;;4987687;28;20175;-84
2022/12/04 00:07:25;;;;;;;41.30;25.20;;;2.40;99.50;;;;;;4989139;28;20372;-82
2022/12/04 00:09:51;;;;;;;40.57;25.33;;;2.40;99.50;;;;;;4982447;28;20207;-81
2022/12/04 00:12:16;;;;;;;44.60;22.30;;;2.40;99.60;;;;;;5000351;28;20170;-83
2022/12/04 00:14:57;;;;;;;41.80;24.67;;;2.50;99.40;;;;;;4996924;28;20209;-82
2022/12/04 00:17:23;;;;;;;40.50;23.37;;;2.40;99.70;;;;;;4992131;28;20156;-83
2022/12/04 00:19:52;;;;;;;45.37;25.70;;;2.40;99.60;;;;;;4988669;28;20156;-85
2022/12/04 00:22:19;;;;;;;47.67;25.03;;;2.30;99.90;;;;;;4976414;28;20540;-82
2022/12/04 00:24:48;;;;;;;45.67;24.87;;;2.40;99.90;;;;;;4969928;28;20518;-85
2022/12/04 00:27:18;;;;;;;41.60;24.37;;;2.30;99.80;;;;;;4989709;28;20200;-84
2022/12/04 00:29:43;;;;;;;41.20;22.97;;;2.30;99.80;;;;;;4998567;28;20270;-84
2022/12/04 00:32:57;;;;;;;43.80;24.73;;;2.30;99.90;;;;;;4986754;28;20176;-84
2022/12/04 00:35:18;;;;;;;42.97;23.90;;;2.20;99.90;;;;;;4986287;28;20191;-85
2022/12/04 00:37:45;;;;;;;41.03;23.67;;;2.20;99.90;;;;;;4986617;28;20219;-84
2022/12/04 00:40:11;;;;;;;43.00;24.53;;;2.10;99.90;;;;;;4998646;28;20206;-83
2022/12/04 00:42:38;;;;;;;47.27;26.53;;;2.10;99.90;;;;;;5002228;28;20179;-81
2022/12/04 00:45:04;;;;;;;43.70;24.87;;;2.10;99.90;;;;;;5008065;28;20179;-81
2022/12/04 00:47:31;;;;;;;42.60;24.27;;;2.10;99.90;;;;;;4989350;28;20468;-82
2022/12/04 00:50:07;;;;;;;46.70;27.37;;;2.10;99.90;;;;;;5005841;28;20210;-81
2022/12/04 00:52:38;;;;;;;42.37;24.13;;;2.00;99.90;;;;;;5013133;28;20171;-82
2022/12/04 00:55:05;;;;;;;43.03;23.20;;;2.00;99.90;;;;;;5002475;28;20206;-83
2022/12/04 00:57:31;;;;;;;44.80;26.77;;;2.00;99.90;;;;;;5003344;28;20193;-84
2022/12/04 01:00:06;;;;;;;44.07;25.47;;;1.90;99.90;;;;;;5017121;28;20152;-80
2022/12/04 01:02:33;;;;;;;45.93;25.97;;;2.00;99.90;;;;;;5018373;28;20166;-79
2022/12/04 01:05:11;;;;;;;43.60;24.23;;;2.00;99.90;;;;;;5015818;28;20189;-80
2022/12/04 01:07:37;;;;;;;40.60;23.77;;;2.00;99.90;;;;;;5009725;28;20231;-82
2022/12/04 01:10:05;;;;;;;41.30;25.20;;;2.00;99.90;;;;;;5004851;28;20294;-82
2022/12/04 01:12:32;;;;;;;49.80;25.93;;;2.00;99.90;;;;;;5003662;28;20220;-84
2022/12/04 01:14:59;;;;;;;47.27;25.00;;;1.90;99.90;;;;;;5001076;28;20190;-83
2022/12/04 01:17:25;;;;;;;43.73;23.53;;;1.90;99.90;;;;;;5002951;28;20164;-84
2022/12/04 01:19:50;;;;;;;47.07;25.40;;;1.90;99.90;;;;;;4999522;28;20174;-81
2022/12/04 01:22:16;;;;;;;42.40;24.27;;;1.90;99.90;;;;;;5002522;28;20164;-83
2022/12/04 01:24:42;;;;;;;41.97;23.07;;;2.00;99.90;;;;;;4984429;28;20190;-82
2022/12/04 01:27:08;;;;;;;46.13;23.83;;;1.80;99.90;;;;;;4987633;28;20253;-84
2022/12/04 01:29:34;;;;;;;44.00;24.43;;;1.80;99.90;;;;;;5006877;28;20199;-83
2022/12/04 01:32:00;;;;;;;44.00;24.87;;;1.90;99.90;;;;;;5005789;28;20167;-83
2022/12/04 01:34:26;;;;;;;46.43;26.90;;;1.80;99.90;;;;;;4985575;28;20588;-83
2022/12/04 01:36:53;;;;;;;40.97;23.57;;;1.90;99.90;;;;;;5000808;28;20174;-82
2022/12/04 01:39:18;;;;;;;43.93;25.47;;;1.90;99.90;;;;;;5001275;28;20206;-83
2022/12/04 01:41:46;;;;;;;46.00;23.37;;;1.80;99.90;;;;;;4981670;28;20615;-83
2022/12/04 01:44:24;;;;;;;44.53;23.83;;;1.80;99.90;;;;;;5004343;28;20175;-83
2022/12/04 01:47:16;;;;;;;41.83;21.93;;;1.80;99.90;;;;;;5010480;28;20548;-84
2022/12/04 01:49:46;;;;;;;42.70;23.60;;;1.90;99.90;;;;;;5012588;28;20194;-83
2022/12/04 01:52:21;;;;;;;46.93;26.73;;;1.70;99.90;;;;;;5018188;28;20174;-82
2022/12/04 01:55:01;;;;;;;48.63;26.93;;;1.60;99.90;;;;;;5001889;28;20178;-83
2022/12/04 01:57:31;;;;;;;46.67;27.47;;;1.70;99.90;;;;;;5013662;28;20182;-83
2022/12/04 02:00:13;;;;;;;45.37;25.57;;;1.80;99.90;;;;;;5008089;28;20171;-82
2022/12/04 02:02:47;;;;;;;41.67;24.67;;;1.70;99.90;;;;;;5001554;28;20186;-82
2022/12/04 02:05:22;;;;;;;48.20;24.57;;;1.70;99.90;;;;;;5003881;28;20167;-82
2022/12/04 02:07:51;;;;;;;49.73;25.73;;;1.70;99.90;;;;;;5002157;28;20182;-82
2022/12/04 02:10:23;;;;;;;47.63;24.97;;;1.70;99.90;;;;;;5000569;28;20298;-82
2022/12/04 02:13:10;;;;;;;48.70;26.37;;;1.80;99.90;;;;;;5000723;28;20191;-84
2022/12/04 02:15:52;;;;;;;45.77;24.67;;;1.80;99.90;;;;;;5000297;28;20278;-82
2022/12/04 02:18:40;;;;;;;50.73;28.60;;;1.80;99.90;;;;;;4999524;28;20541;-83
2022/12/04 02:21:18;;;;;;;45.87;25.70;;;1.80;99.90;;;;;;5000800;28;20263;-81
2022/12/04 02:23:57;;;;;;;46.43;25.43;;;1.90;99.90;;;;;;4995545;28;20183;-80
2022/12/04 02:26:40;;;;;;;44.13;24.90;;;1.90;99.90;;;;;;4998917;28;20163;-82
2022/12/04 02:29:25;;;;;;;47.07;26.40;;;1.90;99.90;;;;;;4999513;28;20212;-81
2022/12/04 02:32:13;;;;;;;43.73;22.67;;;1.90;99.90;;;;;;4997540;28;20170;-82
2022/12/04 02:35:07;;;;;;;46.17;25.73;;;1.90;99.90;;;;;;5009789;28;20155;-82
2022/12/04 02:37:41;;;;;;;44.77;24.63;;;1.90;99.90;;;;;;5000335;28;20222;-80
2022/12/04 02:40:15;;;;;;;46.90;25.63;;;1.90;99.90;;;;;;5013250;28;20178;-78
2022/12/04 02:42:58;;;;;;;50.17;25.10;;;1.90;99.90;;;;;;5017973;28;20193;-80
2022/12/04 02:45:32;;;;;;;43.57;25.53;;;1.90;99.90;;;;;;5001011;28;20174;-80
2022/12/04 02:48:01;;;;;;;46.33;26.90;;;1.90;99.90;;;;;;5001618;28;20198;-82
2022/12/04 02:50:42;;;;;;;47.73;25.73;;;2.00;99.90;;;;;;5004273;28;20249;-80
2022/12/04 02:53:12;;;;;;;44.23;23.17;;;2.00;99.90;;;;;;5011856;28;20179;-81
2022/12/04 02:56:16;;;;;;;43.07;23.80;;;2.00;99.90;;;;;;5019176;28;20171;-80
2022/12/04 02:58:51;;;;;;;44.33;22.83;;;2.00;99.90;;;;;;5004377;28;20158;-82
2022/12/04 03:01:22;;;;;;;45.80;23.70;;;2.00;99.90;;;;;;5019988;28;20257;-82
2022/12/04 03:03:59;;;;;;;50.30;26.23;;;1.90;99.90;;;;;;5015586;28;20171;-82
2022/12/04 03:06:28;;;;;;;53.50;27.10;;;2.00;99.90;;;;;;5000516;28;20159;-81
2022/12/04 03:09:00;;;;;;;48.00;26.87;;;1.90;99.90;;;;;;5001180;28;20214;-83
2022/12/04 03:11:29;;;;;;;40.40;22.03;;;2.00;99.90;;;;;;4983322;28;20291;-84
2022/12/04 03:14:01;;;;;;;47.43;24.43;;;2.00;99.90;;;;;;4999192;28;20167;-83
2022/12/04 03:16:38;;;;;;;47.10;25.83;;;2.00;99.90;;;;;;4998781;28;20174;-82
2022/12/04 03:19:26;;;;;;;44.80;23.13;;;2.00;99.90;;;;;;4999637;28;20258;-82
2022/12/04 03:22:01;;;;;;;44.57;26.30;;;2.00;99.90;;;;;;4981837;28;20183;-84
2022/12/04 03:24:35;;;;;;;45.27;25.07;;;2.10;99.90;;;;;;4999480;28;20631;-83
2022/12/04 03:27:25;;;;;;;45.20;24.40;;;2.10;99.90;;;;;;4999461;28;20253;-83
2022/12/04 03:30:00;;;;;;;46.77;25.63;;;2.10;99.90;;;;;;4999720;28;20683;-83
2022/12/04 03:32:34;;;;;;;43.40;25.93;;;2.10;99.90;;;;;;5005282;28;20178;-83
2022/12/04 03:35:14;;;;;;;50.37;26.60;;;2.10;99.90;;;;;;5005573;28;20182;-82
2022/12/04 03:38:00;;;;;;;43.97;25.67;;;2.20;99.90;;;;;;5003355;28;20254;-82
2022/12/04 03:40:54;;;;;;;51.20;26.73;;;2.10;99.90;;;;;;4982455;28;20624;-81
2022/12/04 03:43:30;;;;;;;46.33;26.67;;;2.20;99.90;;;;;;4998165;28;20179;-83
2022/12/04 03:46:01;;;;;;;49.40;25.07;;;2.20;99.90;;;;;;4997311;28;20163;-83
2022/12/04 03:48:48;;;;;;;45.80;26.00;;;2.30;99.90;;;;;;4997745;28;20175;-83
2022/12/04 03:51:26;;;;;;;44.60;25.67;;;2.30;99.90;;;;;;4979666;28;20659;-83
2022/12/04 03:54:08;;;;;;;45.57;26.70;;;2.30;99.90;;;;;;4979223;28;20636;-83
2022/12/04 03:56:40;;;;;;;46.03;27.27;;;2.30;99.90;;;;;;4995365;28;20183;-83
2022/12/04 03:59:11;;;;;;;46.83;26.80;;;2.30;99.90;;;;;;4996995;28;20175;-83
2022/12/04 04:01:40;;;;;;;48.57;26.27;;;2.30;99.90;;;;;;4997535;28;20167;-82
2022/12/04 04:04:12;;;;;;;43.63;23.30;;;2.30;99.90;;;;;;4997662;28;20620;-83
2022/12/04 04:06:45;;;;;;;46.53;25.70;;;2.30;99.90;;;;;;4997762;28;20632;-82
2022/12/04 04:09:17;;;;;;;43.87;24.37;;;2.30;99.90;;;;;;5000518;28;20242;-82
2022/12/04 04:12:00;;;;;;;41.60;23.17;;;2.20;99.90;;;;;;4982292;28;20179;-82
2022/12/04 04:25:52;;;;;;;45.50;26.30;;;2.30;99.90;;;;;;4996116;28;20226;-83
2022/12/04 04:28:34;;;;;;;45.23;26.43;;;2.40;99.90;;;;;;4979288;28;20182;-82
2022/12/04 04:31:30;;;;;;;47.90;26.13;;;2.50;99.90;;;;;;4979234;28;20182;-81
2022/12/04 04:34:09;;;;;;;43.03;23.43;;;2.50;99.90;;;;;;4970839;28;20287;-82
2022/12/04 04:36:58;;;;;;;44.20;24.37;;;2.50;99.90;;;;;;4996210;28;20167;-83
2022/12/04 04:39:35;;;;;;;42.03;25.53;;;2.50;99.90;;;;;;4997495;28;20254;-84
2022/12/04 04:42:22;;;;;;;43.60;24.53;;;2.50;99.90;;;;;;4979142;28;20182;-83
2022/12/04 04:45:09;;;;;;;43.53;25.73;;;2.50;99.80;;;;;;4996094;28;20253;-82
2022/12/04 04:48:15;;;;;;;42.50;25.63;;;2.40;99.50;;;;;;4978213;28;20646;-82
2022/12/04 04:50:43;;;;;;;43.10;25.13;;;2.50;99.80;;;;;;4898308;29;20304;-83
2022/12/04 04:53:14;;;;;;;44.53;25.33;;;2.60;99.70;;;;;;4981657;28;20199;-83
2022/12/04 04:55:41;;;;;;;46.03;25.50;;;2.50;99.10;;;;;;4994589;28;20212;-82
2022/12/04 04:58:13;;;;;;;42.47;25.23;;;2.50;99.30;;;;;;4995807;28;20600;-83
2022/12/04 05:00:43;;;;;;;46.37;25.57;;;2.50;99.10;;;;;;4996228;28;20170;-83
2022/12/04 05:03:08;;;;;;;41.87;25.00;;;2.70;99.30;;;;;;4995744;28;20576;-82
2022/12/04 05:05:34;;;;;;;44.47;25.73;;;2.50;98.50;;;;;;4994664;28;20241;-83
2022/12/04 05:08:00;;;;;;;42.77;24.07;;;2.50;98.80;;;;;;4995851;28;20233;-82
2022/12/04 05:10:26;;;;;;;45.10;25.87;;;2.50;98.90;;;;;;4996584;28;20305;-82
2022/12/04 05:12:51;;;;;;;46.07;24.37;;;2.70;99.30;;;;;;4998335;28;20271;-81
2022/12/04 05:15:17;;;;;;;40.87;24.37;;;2.60;99.20;;;;;;4985995;28;20182;-82
2022/12/04 05:17:42;;;;;;;39.93;24.10;;;2.50;98.90;;;;;;5018791;28;20176;-83
2022/12/04 05:20:09;;;;;;;40.43;23.47;;;2.50;98.60;;;;;;5019791;28;20183;-82
2022/12/04 05:22:41;;;;;;;41.43;24.90;;;2.50;98.60;;;;;;4997849;28;20186;-82
2022/12/04 05:25:19;;;;;;;44.60;25.77;;;2.50;99.20;;;;;;5003041;28;20163;-82
2022/12/04 05:27:45;;;;;;;39.83;25.50;;;2.50;99.30;;;;;;4995999;28;20714;-83
2022/12/04 05:30:11;;;;;;;43.43;24.37;;;2.50;99.00;;;;;;4995159;28;20234;-83
2022/12/04 05:32:37;;;;;;;48.17;26.87;;;2.60;98.90;;;;;;4994947;28;20164;-81
2022/12/04 05:35:03;;;;;;;40.97;24.13;;;2.60;98.70;;;;;;4993499;28;20197;-82
2022/12/04 05:37:28;;;;;;;45.73;27.10;;;2.60;98.30;;;;;;4997752;28;20185;-82
2022/12/04 05:39:54;;;;;;;48.03;25.93;;;2.70;98.10;;;;;;5011622;28;20202;-82
2022/12/04 05:42:20;;;;;;;42.20;24.60;;;2.60;98.40;;;;;;5014757;28;20183;-82
2022/12/04 05:44:48;;;;;;;46.90;26.40;;;2.50;98.70;;;;;;5008333;28;20314;-83
2022/12/04 05:47:15;;;;;;;43.57;27.27;;;2.50;99.20;;;;;;4996584;28;20167;-82
2022/12/04 05:49:41;;;;;;;48.47;26.53;;;2.60;99.80;;;;;;4995174;28;20206;-82
2022/12/04 05:52:07;;;;;;;41.27;25.70;;;2.50;99.40;;;;;;4994600;28;20179;-81
2022/12/04 05:54:32;;;;;;;47.13;26.33;;;2.50;99.70;;;;;;4993997;28;20687;-81
2022/12/04 05:56:58;;;;;;;43.73;25.33;;;2.50;99.80;;;;;;4994608;28;20181;-84
2022/12/04 05:59:25;;;;;;;40.50;24.97;;;2.40;99.70;;;;;;4977238;28;20183;-84
2022/12/04 06:01:51;;;;;;;49.23;27.67;;;2.50;99.90;;;;;;4994104;28;20258;-81
2022/12/04 06:04:16;;;;;;;45.43;28.63;;;2.40;99.90;;;;;;4982087;28;20198;-81
2022/12/04 06:06:42;;;;;;;50.03;28.57;;;2.50;99.90;;;;;;5003402;28;20250;-84
2022/12/04 06:09:08;;;;;;;45.53;26.47;;;2.50;99.90;;;;;;5003618;28;20210;-82
2022/12/04 06:11:36;;;;;;;46.83;27.00;;;2.50;99.90;;;;;;4996260;28;20179;-82
2022/12/04 06:14:06;;;;;;;47.37;27.37;;;2.50;99.90;;;;;;4977583;28;20204;-81
2022/12/04 06:16:37;;;;;;;48.00;28.43;;;2.50;99.90;;;;;;4994843;28;20650;-82
2022/12/04 06:19:06;;;;;;;44.20;25.83;;;2.60;99.90;;;;;;4994672;28;20182;-82
2022/12/04 06:21:34;;;;;;;42.30;26.20;;;2.50;98.80;;;;;;4994064;28;20265;-82
2022/12/04 06:24:00;;;;;;;46.63;26.77;;;2.50;98.80;;;;;;4993680;28;20167;-83
2022/12/04 06:26:26;;;;;;;45.53;25.97;;;2.50;99.10;;;;;;4994236;28;20190;-82
2022/12/04 06:28:56;;;;;;;45.93;25.73;;;2.50;99.20;;;;;;4994258;28;20277;-82
2022/12/04 06:31:24;;;;;;;43.00;25.10;;;2.50;99.10;;;;;;4994374;28;20175;-82
2022/12/04 06:33:49;;;;;;;42.37;26.33;;;2.50;99.40;;;;;;4994565;28;20181;-83
2022/12/04 06:36:18;;;;;;;47.73;28.33;;;2.50;99.70;;;;;;4994914;28;20171;-82
2022/12/04 06:38:44;;;;;;;48.57;27.30;;;2.50;99.60;;;;;;4995025;28;20639;-82
2022/12/04 06:41:14;;;;;;;45.70;26.50;;;2.50;99.60;;;;;;5000051;28;20191;-81
2022/12/04 06:43:41;;;;;;;46.77;28.43;;;2.50;99.70;;;;;;5002494;28;20179;-83
2022/12/04 06:46:12;;;;;;;47.93;27.50;;;2.50;99.90;;;;;;4994542;28;20171;-83
2022/12/04 06:48:39;;;;;;;47.93;27.80;;;2.50;99.80;;;;;;4994640;28;20179;-82
2022/12/04 06:51:08;;;;;;;43.10;25.87;;;2.50;99.80;;;;;;4993699;28;20186;-81
2022/12/04 06:53:41;;;;;;;49.50;27.80;;;2.50;99.90;;;;;;4994697;28;20194;-82
2022/12/04 06:56:10;;;;;;;46.33;29.27;;;2.50;99.90;;;;;;4975786;28;20220;-82
2022/12/04 06:58:37;;;;;;;44.37;25.40;;;2.50;99.90;;;;;;4993938;28;20222;-83
2022/12/04 07:01:08;;;;;;;46.77;26.67;;;2.50;99.50;;;;;;4993803;28;20175;-80
2022/12/04 07:03:34;;;;;;;45.60;26.23;;;2.50;99.00;;;;;;4994213;28;20722;-81
2022/12/04 07:06:15;;;;;;;42.00;25.73;;;2.50;98.80;;;;;;4975748;28;20206;-82
2022/12/04 07:08:43;;;;;;;44.40;26.23;;;2.50;99.50;;;;;;4994844;28;20190;-82
2022/12/04 07:11:09;;;;;;;48.50;27.03;;;2.50;99.60;;;;;;4994333;28;20179;-81
2022/12/04 07:13:35;;;;;;;47.10;26.73;;;2.50;99.50;;;;;;4994841;28;20742;-82
2022/12/04 07:16:03;;;;;;;45.90;27.70;;;2.50;99.00;;;;;;4993659;28;20203;-81
2022/12/04 07:18:31;;;;;;;38.97;23.70;;;2.50;99.00;;;;;;4992900;28;20164;-83
2022/12/04 07:20:57;;;;;;;45.90;28.17;;;2.50;99.20;;;;;;4992886;28;20237;-81
2022/12/04 07:23:23;;;;;;;44.93;26.83;;;2.50;99.10;;;;;;4992181;28;20219;-81
2022/12/04 07:25:48;;;;;;;43.80;26.67;;;2.50;98.90;;;;;;4994077;28;20164;-82
2022/12/04 07:28:14;;;;;;;50.60;25.90;;;2.60;99.00;;;;;;4995920;28;20177;-82
2022/12/04 07:30:40;;;;;;;44.90;27.40;;;2.50;99.00;;;;;;4995716;28;20203;-83
2022/12/04 07:33:05;;;;;;;46.23;26.20;;;2.40;98.80;;;;;;5003743;28;20182;-84
2022/12/04 07:35:31;;;;;;;48.00;27.90;;;2.40;98.70;;;;;;4998238;28;20155;-80
2022/12/04 07:37:57;;;;;;;43.50;26.90;;;2.50;99.10;;;;;;5000970;28;20179;-80
2022/12/04 07:40:23;;;;;;;50.03;29.13;;;2.50;99.00;;;;;;5017869;28;20187;-81
2022/12/04 07:42:48;;;;;;;48.40;26.70;;;2.50;99.40;;;;;;5007357;28;20195;-80
2022/12/04 07:45:15;;;;;;;44.30;26.23;;;2.60;98.80;;;;;;4984859;28;20171;-79
2022/12/04 07:47:47;;;;;;;46.87;27.17;;;2.60;98.10;;;;;;4991584;28;20171;-81
2022/12/04 07:50:23;;;;;;;54.03;28.87;;;2.60;98.00;;;;;;4989337;28;20203;-82
2022/12/04 07:52:50;;;;;;;42.33;23.13;;;2.60;97.80;;;;;;4986873;28;20175;-83
2022/12/04 07:55:16;;;;;;;42.00;26.90;;;2.70;97.10;;;;;;4983330;28;20655;-82
2022/12/04 07:57:43;;;;;;;44.00;25.80;;;2.50;97.70;;;;;;4979639;28;20172;-82
2022/12/04 08:00:15;;;;;;;44.83;24.10;;;2.50;98.30;;;;;;4978377;28;20485;-82
2022/12/04 08:02:45;;;;;;;41.87;25.57;;;2.50;98.30;;;;;;4978466;28;20592;-82
2022/12/04 08:05:11;;;;;;;46.87;25.07;;;2.50;98.00;;;;;;4989883;28;20225;-81
2022/12/04 08:07:37;;;;;;;44.47;26.57;;;2.50;98.50;;;;;;4979412;28;20179;-82
2022/12/04 08:10:03;;;;;;;41.47;25.43;;;2.50;98.90;;;;;;4996826;28;20582;-81
2022/12/04 08:12:31;;;;;;;38.93;21.73;;;2.50;98.90;;;;;;4997525;28;20167;-81
2022/12/04 08:14:57;;;;;;;44.70;25.83;;;2.50;98.60;;;;;;4978710;28;20552;-81
2022/12/04 08:17:23;;;;;;;38.10;21.93;;;2.50;99.00;;;;;;4996739;28;20171;-79
2022/12/04 08:19:49;;;;;;;44.90;27.30;;;2.50;99.20;;;;;;4996645;28;20177;-79
2022/12/04 08:22:14;;;;;;;45.77;27.23;;;2.50;98.50;;;;;;4999329;28;20183;-81
2022/12/04 08:24:42;;;;;;;43.37;26.73;;;2.50;98.00;;;;;;5016885;28;20166;-82
2022/12/04 08:27:13;;;;;;;43.93;28.87;;;2.60;98.00;;;;;;5010754;28;20171;-84
2022/12/04 08:29:39;;;;;;;47.17;26.77;;;2.60;98.20;;;;;;4999619;28;20215;-82
2022/12/04 08:32:05;;;;;;;46.50;26.70;;;2.70;97.80;;;;;;5001978;28;20230;-82
2022/12/04 08:34:30;;;;;;;45.27;26.47;;;2.70;97.80;;;;;;5014270;28;20175;-84
2022/12/04 08:36:59;;;;;;;44.27;26.87;;;2.80;97.40;;;;;;4985064;28;20174;-80
2022/12/04 08:39:31;;;;;;;42.60;26.13;;;2.70;97.50;;;;;;4996663;28;20237;-79
2022/12/04 08:41:57;;;;;;;42.10;25.17;;;2.70;97.50;;;;;;4996717;28;20175;-79
2022/12/04 08:44:23;;;;;;;44.50;25.07;;;2.80;97.60;;;;;;4999493;28;20302;-88
2022/12/04 08:46:48;;;;;;;47.60;27.60;;;2.70;97.40;;;;;;5008297;28;20159;-88
2022/12/04 08:49:14;;;;;;;47.00;28.03;;;2.70;97.20;;;;;;5003111;28;20206;-87
2022/12/04 08:51:40;;;;;;;46.87;27.93;;;2.70;96.90;;;;;;5007790;28;20251;-88
2022/12/04 08:54:07;;;;;;;45.37;27.57;;;2.70;97.40;;;;;;5016551;28;20166;-88
2022/12/04 08:56:36;;;;;;;46.70;28.00;;;2.90;97.30;;;;;;5012490;28;20170;-77
2022/12/04 08:59:23;;;;;;;41.60;26.50;;;2.80;96.30;;;;;;5010223;28;20195;-78
2022/12/04 09:01:55;;;;;;;48.67;29.63;;;2.70;96.40;;;;;;5007007;28;20168;-81
2022/12/04 09:04:23;;;;;;;47.47;28.70;;;2.90;96.30;;;;;;5003458;28;20281;-85
2022/12/04 09:06:49;;;;;;;44.53;26.90;;;2.90;95.60;;;;;;5008304;28;20663;-80
2022/12/04 09:09:16;;;;;;;41.67;26.13;;;2.80;95.90;;;;;;4994854;28;20203;-85
2022/12/04 09:11:49;;;;;;;46.10;25.77;;;2.80;95.60;;;;;;5014023;28;20242;-84
2022/12/04 09:14:15;;;;;;;44.27;27.57;;;2.80;95.90;;;;;;5010006;28;20178;-87
2022/12/04 09:16:45;;;;;;;46.27;25.67;;;2.80;95.60;;;;;;5004555;28;20179;-89
2022/12/04 09:19:12;;;;;;;44.60;26.77;;;2.90;96.00;;;;;;5003387;28;20182;-80
2022/12/04 09:21:38;;;;;;;47.27;29.47;;;2.80;95.50;;;;;;5003939;28;20275;-86
2022/12/04 09:24:05;;;;;;;45.80;26.07;;;2.80;96.40;;;;;;5002700;28;20191;-82
2022/12/04 09:26:32;;;;;;;47.93;29.20;;;2.90;96.40;;;;;;4999593;28;20178;-88
2022/12/04 09:29:21;;;;;;;43.03;28.00;;;2.80;95.70;;;;;;5003880;28;20159;-86
2022/12/04 09:31:46;;;;;;;49.80;29.80;;;2.90;95.70;;;;;;4992076;28;20191;-87
2022/12/04 09:34:14;;;;;;;46.10;27.50;;;3.00;95.10;;;;;;5005083;28;20171;-87
2022/12/04 09:36:40;;;;;;;39.23;23.67;;;2.90;94.90;;;;;;5003199;28;20647;-86
2022/12/04 09:39:05;;;;;;;40.80;25.63;;;2.90;94.60;;;;;;4982146;28;20174;-87
2022/12/04 09:42:14;;;;;;;40.47;23.93;;;2.90;94.20;;;;;;4999908;28;20175;-86
2022/12/04 09:44:48;;;;;;;43.43;27.00;;;2.80;93.10;;;;;;4999493;28;20590;-86
2022/12/04 09:47:28;;;;;;;40.23;25.43;;;2.90;93.30;;;;;;5000652;28;20170;-87
2022/12/04 09:50:00;;;;;;;41.10;25.00;;;2.70;92.60;;;;;;5000676;28;20203;-89
2022/12/04 09:52:57;;;;;;;40.77;24.47;;;3.00;92.40;;;;;;5000230;28;20187;-85
2022/12/04 09:55:32;;;;;;;36.67;23.40;;;3.00;91.50;;;;;;5001743;28;20159;-86
2022/12/04 09:58:02;;;;;;;37.10;23.07;;;3.10;90.90;;;;;;5003119;28;20617;-85
2022/12/04 10:00:30;;;;;;;33.97;22.43;;;3.00;90.50;;;;;;5003953;28;20203;-85
2022/12/04 10:03:15;;;;;;;38.10;22.80;;;3.00;89.20;;;;;;4970039;28;20182;-87
2022/12/04 10:05:52;;;;;;;39.23;24.40;;;3.00;88.50;;;;;;5001246;28;20171;-88
2022/12/04 10:08:46;;;;;;;37.17;23.50;;;3.00;86.50;;;;;;5011091;28;20182;-89
2022/12/04 10:11:55;;;;;;;32.93;21.47;;;3.10;87.50;;;;;;4986068;28;20210;-87
2022/12/04 10:14:51;;;;;;;30.10;17.47;;;3.20;85.40;;;;;;5011509;28;20148;-87
2022/12/04 10:17:43;;;;;;;37.83;22.67;;;3.00;84.20;;;;;;5017755;28;20151;-83
2022/12/04 10:20:40;;;;;;;37.37;25.63;;;2.90;88.00;;;;;;5017882;28;20167;-83
2022/12/04 10:23:08;;;;;;;35.23;23.13;;;3.00;90.30;;;;;;5014347;28;20179;-86
2022/12/04 10:25:39;;;;;;;38.87;24.90;;;3.00;88.10;;;;;;4988990;28;20179;-84
2022/12/04 10:28:28;;;;;;;33.10;22.53;;;3.00;88.60;;;;;;4969029;28;20307;-88
2022/12/04 10:30:59;;;;;;;35.40;19.70;;;3.00;88.60;;;;;;4983172;28;20206;-86
2022/12/04 10:33:46;;;;;;;34.97;21.83;;;3.00;87.60;;;;;;4998933;28;20522;-84
2022/12/04 10:36:25;;;;;;;33.37;20.87;;;3.10;89.70;;;;;;5004549;28;20198;-85
2022/12/04 10:39:09;;;;;;;31.90;21.50;;;2.90;86.70;;;;;;5004882;28;20175;-84
2022/12/04 10:42:25;;;;;;;32.07;20.37;;;2.90;86.80;;;;;;5001272;28;20243;-86
2022/12/04 10:44:52;;;;;;;32.67;21.37;;;3.00;85.80;;;;;;4993464;28;20172;-85
2022/12/04 10:47:21;;;;;;;27.47;19.17;;;3.00;86.30;;;;;;4993325;28;20571;-79
2022/12/04 10:49:47;;;;;;;31.20;21.37;;;3.00;84.90;;;;;;4989081;28;20226;-83
2022/12/04 10:52:13;;;;;;;30.80;21.17;;;3.00;84.60;;;;;;4974575;28;20243;-86
2022/12/04 10:54:47;;;;;;;33.03;23.30;;;3.20;83.60;;;;;;4992664;28;20212;-85
2022/12/04 10:57:16;;;;;;;29.87;19.57;;;3.10;84.80;;;;;;4999166;28;20214;-83
2022/12/04 10:59:55;;;;;;;30.17;19.80;;;3.10;82.50;;;;;;5006916;28;20179;-84
2022/12/04 11:02:32;;;;;;;30.20;19.43;;;3.00;83.00;;;;;;5009023;28;20266;-84
2022/12/04 11:05:02;;;;;;;33.07;22.23;;;3.00;83.80;;;;;;4991468;28;20194;-84
2022/12/04 11:07:33;;;;;;;34.40;19.70;;;3.10;83.90;;;;;;5000765;28;20178;-86
2022/12/04 11:10:28;;;;;;;33.57;20.73;;;3.10;83.10;;;;;;4997365;28;20211;-79
2022/12/04 11:13:14;;;;;;;29.17;18.73;;;3.10;81.60;;;;;;4993471;28;20183;-79
2022/12/04 11:15:53;;;;;;;31.53;20.23;;;3.10;81.10;;;;;;4990970;28;20226;-83
2022/12/04 11:18:22;;;;;;;29.77;20.07;;;3.10;81.70;;;;;;4994529;28;20171;-87
2022/12/04 11:21:35;;;;;;;28.47;20.13;;;3.00;81.30;;;;;;4989230;28;20175;-85
2022/12/04 11:24:22;;;;;;;29.00;19.60;;;3.20;81.20;;;;;;4987104;28;20159;-87
2022/12/04 11:26:49;;;;;;;28.20;20.03;;;3.20;79.20;;;;;;4970318;28;20262;-83
2022/12/04 11:29:20;;;;;;;30.07;20.23;;;3.10;80.00;;;;;;4988651;28;20209;-85
2022/12/04 11:31:51;;;;;;;31.20;20.73;;;3.20;80.10;;;;;;4986689;28;20637;-84
2022/12/04 11:34:27;;;;;;;30.03;20.57;;;3.20;79.00;;;;;;4990155;28;20609;-80
2022/12/04 11:36:55;;;;;;;29.10;18.83;;;3.40;79.80;;;;;;4970263;28;20215;-82
2022/12/04 11:39:38;;;;;;;30.13;21.50;;;3.40;77.10;;;;;;5002780;28;20215;-82
2022/12/04 11:42:23;;;;;;;29.00;20.27;;;3.40;77.50;;;;;;5009479;28;20179;-81
2022/12/04 11:44:59;;;;;;;28.50;20.30;;;3.30;79.20;;;;;;5014789;28;20178;-81
2022/12/04 11:47:30;;;;;;;24.50;17.57;;;3.30;79.30;;;;;;4985853;28;20167;-79
2022/12/04 11:50:20;;;;;;;28.87;19.70;;;3.20;80.30;;;;;;4990308;28;20241;-80
2022/12/04 11:53:06;;;;;;;28.63;19.90;;;3.10;81.00;;;;;;5001606;28;20177;-80
2022/12/04 11:56:12;;;;;;;26.67;18.50;;;3.10;82.10;;;;;;5001708;28;20222;-81
2022/12/04 11:59:20;;;;;;;27.53;18.33;;;3.10;81.60;;;;;;5009752;28;20183;-86
2022/12/04 12:01:57;;;;;;;25.70;17.10;;;3.10;80.20;;;;;;4998974;28;20662;-83
2022/12/04 12:04:40;;;;;;;26.07;17.97;;;3.10;79.20;;;;;;4984509;28;20202;-83
2022/12/04 12:07:29;;;;;;;25.73;16.77;;;3.10;78.20;;;;;;5002674;28;20168;-84
2022/12/04 12:10:30;;;;;;;26.70;18.00;;;3.10;79.30;;;;;;4983654;28;20557;-81
2022/12/04 12:13:05;;;;;;;24.87;16.73;;;3.20;79.10;;;;;;4986967;28;20261;-84
2022/12/04 12:15:54;;;;;;;25.57;17.53;;;3.20;76.80;;;;;;5001126;28;20245;-83
2022/12/04 12:18:46;;;;;;;29.90;18.53;;;3.20;77.20;;;;;;5001312;28;20211;-85
2022/12/04 12:21:23;;;;;;;25.00;18.60;;;3.30;78.30;;;;;;4978138;28;20184;-87
2022/12/04 12:24:28;;;;;;;26.67;19.70;;;3.30;77.90;;;;;;4995262;28;20191;-87
2022/12/04 12:27:38;;;;;;;26.57;18.43;;;3.30;78.00;;;;;;4995521;28;20171;-82
2022/12/04 12:30:08;;;;;;;28.00;19.30;;;3.30;78.10;;;;;;4998169;28;20338;-80
2022/12/04 12:32:33;;;;;;;29.20;20.47;;;3.20;79.70;;;;;;5003533;28;20234;-82
2022/12/04 12:35:01;;;;;;;28.17;19.70;;;3.20;79.40;;;;;;4982346;28;20179;-86
2022/12/04 12:37:43;;;;;;;25.03;18.40;;;3.20;78.40;;;;;;4954450;28;20187;-85
2022/12/04 12:40:50;;;;;;;27.20;17.63;;;3.10;79.60;;;;;;5000192;28;20694;-84
2022/12/04 12:43:28;;;;;;;27.03;17.20;;;3.10;79.90;;;;;;4999208;28;20314;-85
2022/12/04 12:45:59;;;;;;;26.87;18.07;;;3.20;79.30;;;;;;4986499;28;20228;-84
2022/12/04 12:48:37;;;;;;;26.07;18.40;;;3.20;78.30;;;;;;4977274;28;20190;-83
2022/12/04 12:51:09;;;;;;;22.50;15.37;;;3.30;77.70;;;;;;4985928;28;20190;-85
2022/12/04 12:53:41;;;;;;;21.20;14.20;;;3.20;75.70;;;;;;4985830;28;20706;-86
2022/12/04 12:56:10;;;;;;;26.63;17.80;;;3.10;73.60;;;;;;5002391;28;20237;-86
2022/12/04 12:58:47;;;;;;;22.73;15.27;;;3.20;74.10;;;;;;4980683;28;20210;-85
2022/12/04 13:01:42;;;;;;;22.13;14.67;;;3.10;71.80;;;;;;4981942;28;20261;-86
2022/12/04 13:04:17;;;;;;;21.93;15.93;;;3.00;72.80;;;;;;4998700;28;20183;-87
2022/12/04 13:06:45;;;;;;;22.33;16.83;;;3.10;73.10;;;;;;4983094;28;20670;-86
2022/12/04 13:09:25;;;;;;;20.57;15.27;;;3.20;70.70;;;;;;5002259;28;20259;-90
2022/12/04 13:11:57;;;;;;;20.90;13.93;;;3.30;68.60;;;;;;4983616;28;20198;-87
2022/12/04 13:14:23;;;;;;;19.10;14.10;;;3.20;67.30;;;;;;4981594;28;20171;-86
2022/12/04 13:16:56;;;;;;;19.23;12.43;;;3.30;66.90;;;;;;4981682;28;20175;-86
2022/12/04 13:19:35;;;;;;;23.27;14.70;;;3.20;65.80;;;;;;4980164;28;20178;-87